createdAt,value
2019-02-19T00:02:41.211Z,99.90
2019-02-19T00:07:42.309Z,99.90
2019-02-19T00:12:43.408Z,99.90
2019-02-19T00:17:44.495Z,99.90
2019-02-19T00:22:45.603Z,99.90
2019-02-19T00:27:46.707Z,99.90
2019-02-19T00:32:47.804Z,99.90
2019-02-19T00:37:48.917Z,99.90
2019-02-19T00:42:50.010Z,99.90
2019-02-19T00:47:51.124Z,99.90
2019-02-19T00:52:52.230Z,99.90
2019-02-19T00:57:53.327Z,99.90
2019-02-19T01:02:54.419Z,99.90
2019-02-19T01:07:55.520Z,99.90
2019-02-19T01:12:56.631Z,99.90
2019-02-19T01:17:57.729Z,99.90
2019-02-19T01:22:58.834Z,99.90
2019-02-19T01:27:59.944Z,99.90
2019-02-19T01:33:01.053Z,99.90
2019-02-19T01:38:02.151Z,99.90
2019-02-19T01:43:03.346Z,99.90
2019-02-19T01:48:04.442Z,99.90
2019-02-19T01:53:05.550Z,99.90
2019-02-19T01:58:06.619Z,99.90
2019-02-19T02:03:07.757Z,99.90
2019-02-19T02:08:08.851Z,99.90
2019-02-19T02:13:09.945Z,99.90
2019-02-19T02:18:11.046Z,99.90
2019-02-19T02:23:12.262Z,99.90
2019-02-19T02:28:13.365Z,99.90
2019-02-19T02:33:14.447Z,99.90
2019-02-19T02:38:15.537Z,99.90
2019-02-19T02:43:16.640Z,99.90
2019-02-19T02:48:17.734Z,99.90
2019-02-19T02:53:18.839Z,99.90
2019-02-19T02:58:19.933Z,99.90
2019-02-19T03:03:21.155Z,99.90
2019-02-19T03:08:22.255Z,99.90
2019-02-19T03:13:23.349Z,99.90
2019-02-19T03:18:24.447Z,99.90
2019-02-19T03:23:25.579Z,99.90
2019-02-19T03:28:29.156Z,99.90
2019-02-19T03:33:30.251Z,99.90
2019-02-19T03:38:31.368Z,99.90
2019-02-19T03:43:32.464Z,99.90
2019-02-19T03:48:33.574Z,99.90
2019-02-19T03:53:34.663Z,99.90
2019-02-19T03:58:35.958Z,99.90
2019-02-19T04:03:37.250Z,99.90
2019-02-19T04:08:38.358Z,99.90
2019-02-19T04:13:39.438Z,99.90
2019-02-19T04:18:40.531Z,99.90
2019-02-19T04:23:41.643Z,99.90
2019-02-19T04:28:42.730Z,99.90
2019-02-19T04:33:43.831Z,99.90
2019-02-19T04:38:44.925Z,99.90
2019-02-19T04:43:46.038Z,99.90
2019-02-19T04:48:47.257Z,99.90
2019-02-19T04:53:48.343Z,99.90
2019-02-19T04:58:49.454Z,99.90
2019-02-19T05:03:50.637Z,99.90
2019-02-19T05:08:51.750Z,99.90
2019-02-19T05:13:52.859Z,99.90
2019-02-19T05:18:53.947Z,99.90
2019-02-19T05:23:55.055Z,99.90
2019-02-19T05:28:56.151Z,99.90
2019-02-19T05:33:57.248Z,99.90
2019-02-19T05:38:58.346Z,99.90
2019-02-19T05:43:59.436Z,99.90
2019-02-19T05:49:00.539Z,99.90
2019-02-19T05:54:01.634Z,99.90
2019-02-19T05:59:02.838Z,99.90
2019-02-19T06:04:03.933Z,99.90
2019-02-19T06:09:05.018Z,99.90
2019-02-19T06:14:06.110Z,99.90
2019-02-19T06:19:07.211Z,99.90
2019-02-19T06:24:08.316Z,99.90
2019-02-19T06:29:09.410Z,99.90
2019-02-19T06:34:10.501Z,99.90
2019-02-19T06:39:11.611Z,99.90
2019-02-19T06:44:12.767Z,99.90
2019-02-19T06:49:13.916Z,99.90
2019-02-19T06:54:15.015Z,99.90
2019-02-19T06:59:16.112Z,99.90
2019-02-19T07:04:21.790Z,99.90
2019-02-19T07:09:22.983Z,99.90
2019-02-19T07:14:24.088Z,99.90
2019-02-19T07:19:25.192Z,99.90
2019-02-19T07:24:26.295Z,99.90
2019-02-19T07:29:27.379Z,99.90
2019-02-19T07:34:28.466Z,99.90
2019-02-19T07:39:29.577Z,99.90
2019-02-19T07:44:30.671Z,99.90
2019-02-19T07:49:32.009Z,99.90
2019-02-19T07:54:33.116Z,99.90
2019-02-19T07:59:34.190Z,99.90
2019-02-19T08:04:35.301Z,99.90
2019-02-19T08:09:36.403Z,99.90
2019-02-19T08:14:37.523Z,99.90
2019-02-19T08:19:38.653Z,99.90
2019-02-19T08:24:39.745Z,99.90
2019-02-19T08:29:40.841Z,99.90
2019-02-19T08:34:41.940Z,99.90
2019-02-19T08:39:43.027Z,99.90
2019-02-19T08:44:44.125Z,99.90
2019-02-19T08:49:45.211Z,99.90
2019-02-19T08:54:46.316Z,99.90
2019-02-19T08:59:47.416Z,99.90
2019-02-19T09:04:48.542Z,99.90
2019-02-19T09:09:49.638Z,99.90
2019-02-19T09:14:50.735Z,99.90
2019-02-19T09:19:51.862Z,99.90
2019-02-19T09:24:52.954Z,99.90
2019-02-19T09:29:54.904Z,99.90
2019-02-19T09:34:56.032Z,99.40
2019-02-19T09:39:57.115Z,75.20
2019-02-19T09:44:58.215Z,70.60
2019-02-19T09:49:59.318Z,65.70
2019-02-19T09:55:00.457Z,67.60
2019-02-19T10:00:01.729Z,70.00
2019-02-19T10:05:04.833Z,76.90
2019-02-19T10:10:15.643Z,88.00
2019-02-19T10:15:16.754Z,93.90
2019-02-19T10:20:17.868Z,92.30
2019-02-19T10:25:19.073Z,93.90
2019-02-19T10:30:20.279Z,91.00
2019-02-19T10:35:21.382Z,78.10
2019-02-19T10:40:22.499Z,72.90
2019-02-19T10:45:25.009Z,64.70
2019-02-19T10:50:26.163Z,62.10
2019-02-19T10:55:27.241Z,62.30
2019-02-19T11:00:28.335Z,65.60
2019-02-19T11:05:29.443Z,64.10
2019-02-19T11:10:30.548Z,63.50
2019-02-19T11:15:31.667Z,63.00
2019-02-19T11:20:32.763Z,61.40
2019-02-19T11:25:33.891Z,59.80
2019-02-19T11:30:34.980Z,57.20
2019-02-19T11:35:36.114Z,49.30
2019-02-19T11:40:37.288Z,49.80
2019-02-19T11:45:38.407Z,48.30
2019-02-19T11:50:39.558Z,48.10
2019-02-19T11:55:40.739Z,48.60
2019-02-19T12:00:43.740Z,47.00
2019-02-19T12:05:44.850Z,44.80
2019-02-19T12:10:45.964Z,45.90
2019-02-19T12:15:47.233Z,51.10
2019-02-19T12:20:48.352Z,51.10
2019-02-19T12:25:49.462Z,47.10
2019-02-19T12:30:50.762Z,47.70
2019-02-19T12:35:52.135Z,51.40
2019-02-19T12:40:53.317Z,50.70
2019-02-19T12:45:54.411Z,53.50
2019-02-19T12:50:55.515Z,56.00
2019-02-19T12:55:56.617Z,60.00
2019-02-19T13:00:57.824Z,67.80
2019-02-19T13:05:59.133Z,80.00
2019-02-19T13:11:00.241Z,90.90
2019-02-19T13:16:01.370Z,92.20
2019-02-19T13:21:02.516Z,95.10
2019-02-19T13:26:03.615Z,98.60
2019-02-19T13:31:04.718Z,99.90
2019-02-19T13:36:06.919Z,99.90
2019-02-19T13:41:08.044Z,99.90
2019-02-19T13:46:09.256Z,99.90
2019-02-19T13:51:10.362Z,99.90
2019-02-19T13:56:11.464Z,99.90
2019-02-19T14:01:13.912Z,99.90
2019-02-19T14:06:15.072Z,99.90
2019-02-19T14:11:16.189Z,99.90
2019-02-19T14:16:19.645Z,99.90
2019-02-19T14:21:39.543Z,99.90
2019-02-19T14:26:45.480Z,99.90
2019-02-19T14:32:00.816Z,99.90
2019-02-19T14:37:18.916Z,99.90
2019-02-19T14:42:38.986Z,99.90
2019-02-19T14:47:58.535Z,99.90
2019-02-19T14:53:01.546Z,99.90
2019-02-19T14:58:04.648Z,99.90
2019-02-19T15:03:13.455Z,99.90
2019-02-19T15:08:33.285Z,99.90
2019-02-19T15:13:53.192Z,99.90
2019-02-19T15:19:18.382Z,99.90
2019-02-19T15:24:18.893Z,99.90
2019-02-19T15:29:25.052Z,99.90
2019-02-19T15:34:30.856Z,99.90
2019-02-19T15:39:36.640Z,99.90
2019-02-19T15:44:45.467Z,99.90
2019-02-19T15:50:04.977Z,99.90
2019-02-19T15:55:13.852Z,99.90
2019-02-19T16:00:16.866Z,99.90
2019-02-19T16:05:31.899Z,99.90
2019-02-19T16:10:47.132Z,99.90
2019-02-19T16:16:06.944Z,99.90
2019-02-19T16:21:12.749Z,99.90
2019-02-19T16:26:31.158Z,99.90
2019-02-19T16:31:34.156Z,99.90
2019-02-19T16:36:49.225Z,99.90
2019-02-19T16:42:04.451Z,99.90
2019-02-19T16:47:10.296Z,99.90
2019-02-19T16:52:19.204Z,99.90
2019-02-19T16:57:22.238Z,99.90
2019-02-19T17:02:25.335Z,99.90
2019-02-19T17:07:28.337Z,99.90
2019-02-19T17:12:43.804Z,99.90
2019-02-19T17:17:49.641Z,99.90
2019-02-19T17:23:04.539Z,99.90
2019-02-19T17:28:10.639Z,99.90
2019-02-19T17:33:30.331Z,99.90
2019-02-19T17:38:36.089Z,99.90
2019-02-19T17:43:39.268Z,99.90
2019-02-19T17:48:42.319Z,99.90
2019-02-19T17:53:45.363Z,99.90
2019-02-19T17:58:48.393Z,99.90
2019-02-19T18:03:51.413Z,99.90
2019-02-19T18:09:09.539Z,99.90
2019-02-19T18:14:21.718Z,99.90
2019-02-19T18:19:22.864Z,99.90
2019-02-19T18:24:24.092Z,99.90
2019-02-19T18:29:25.230Z,99.90
2019-02-19T18:34:26.365Z,99.90
2019-02-19T18:39:27.489Z,99.90
2019-02-19T18:44:28.623Z,99.90
2019-02-19T18:49:29.747Z,99.90
2019-02-19T18:54:30.998Z,99.90
2019-02-19T18:59:32.319Z,99.90
2019-02-19T19:04:33.651Z,99.90
2019-02-19T19:09:34.865Z,99.90
2019-02-19T19:14:36.126Z,99.90
2019-02-19T19:19:37.513Z,99.90
2019-02-19T19:24:38.819Z,99.90
2019-02-19T19:29:40.080Z,99.90
2019-02-19T19:34:41.250Z,99.90
2019-02-19T19:39:42.466Z,99.90
2019-02-19T19:44:43.713Z,99.90
2019-02-19T19:49:44.869Z,99.90
2019-02-19T19:54:46.006Z,99.90
2019-02-19T19:59:47.182Z,99.90
2019-02-19T20:04:48.401Z,99.90
2019-02-19T20:09:49.611Z,99.90
2019-02-19T20:14:50.734Z,99.90
2019-02-19T20:19:51.914Z,99.90
2019-02-19T20:24:53.153Z,99.90
2019-02-19T20:29:54.390Z,99.90
2019-02-19T20:34:55.626Z,99.90
2019-02-19T20:39:56.900Z,99.90
2019-02-19T20:44:58.045Z,99.90
2019-02-19T20:49:59.275Z,99.90
2019-02-19T20:55:00.399Z,99.90
2019-02-19T21:00:02.621Z,99.90
2019-02-19T21:05:06.622Z,99.90
2019-02-19T21:10:16.167Z,99.90
2019-02-19T21:15:17.395Z,99.90
2019-02-19T21:20:18.561Z,99.90
2019-02-19T21:25:19.765Z,99.90
2019-02-19T21:30:20.978Z,99.90
2019-02-19T21:35:22.081Z,99.90
2019-02-19T21:40:23.194Z,99.90
2019-02-19T21:45:24.328Z,99.90
2019-02-19T21:50:25.448Z,99.90
2019-02-19T21:55:26.573Z,99.90
2019-02-19T22:00:27.707Z,99.90
2019-02-19T22:05:28.812Z,99.90
2019-02-19T22:10:29.920Z,99.90
2019-02-19T22:15:31.018Z,99.90
2019-02-19T22:20:36.794Z,99.90
2019-02-19T22:25:37.905Z,99.90
2019-02-19T22:30:39.008Z,99.90
2019-02-19T22:35:40.103Z,99.90
2019-02-19T22:40:41.226Z,99.90
2019-02-19T22:45:42.324Z,99.90
2019-02-19T22:50:43.424Z,99.90
2019-02-19T22:55:51.621Z,99.90
2019-02-19T23:00:54.957Z,99.90
2019-02-19T23:05:56.064Z,99.90
2019-02-19T23:10:57.156Z,99.90
2019-02-19T23:15:58.267Z,99.90
2019-02-19T23:20:59.382Z,99.90
2019-02-19T23:26:00.482Z,99.90
2019-02-19T23:31:01.593Z,99.90
2019-02-19T23:36:13.817Z,99.90
2019-02-19T23:41:14.940Z,99.90
2019-02-19T23:46:16.060Z,99.90
2019-02-19T23:51:17.167Z,99.90
2019-02-19T23:56:18.306Z,99.90
